EDLP/PAD METAR and TAF weather

Enter ICAO airport designator
Station Type Date Time Source
EDLP METAR 2018/01/24 07:20 UTC NOAA

EDLP 240720Z 21015KT 9999 BKN020 BKN065 10/08 Q1018


Station Type Date Time Source
EDLP Decoded METAR 2018/01/24 07:20 UTC NOAA

Paderborn / Lippstadt, Germany (EDLP) 51-37N 008-37E
Jan 24, 2018 - 02:20 AM EST / 2018.01.24 0720 UTC
Wind: from the SSW (210 degrees) at 17 MPH (15 KT):0
Visibility: greater than 7 mile(s):0
Sky conditions: mostly cloudy
Temperature: 50 F (10 C)
Dew Point: 46 F (8 C)
Relative Humidity: 87%
Pressure (altimeter): 30.06 in. Hg (1018 hPa)
ob: EDLP 240720Z 21015KT 9999 BKN020 BKN065 10/08 Q1018
cycle: 7

Station Type Date Time Source
EDLP TAF 2018/01/24 06:27 UTC NOAA

TAF TAF EDLP 240500Z 2406/2506 21015G25KT 9999 BKN020
TEMPO 2410/2424 21020G30KT
TEMPO 2422/2503 4000 RA
BECMG 2503/2506 22010KT


Example: see airport list